Time;durP1;ratioP1;P1;durP2;ratioP2;P2;SDS_P1;SDS_P2;PMS_P1;PMS_P2;Temp;Humidity;BMP_temperature;BMP_pressure;BME280_temperature;BME280_humidity;BME280_pressure;Samples;Min_cycle;Max_cycle;Signal;HPM_P1;HPM_P2
2022/04/21 00:02:15;;;;;;;7.53;4.13;;;;;;;6.84;72.41;99010.28;4990119;28;20042;-52
2022/04/21 00:04:40;;;;;;;12.80;4.35;;;;;;;6.80;72.64;99010.94;4988680;28;20092;-53
2022/04/21 00:07:05;;;;;;;9.70;5.63;;;;;;;6.79;72.88;99009.28;4991147;28;20046;-53
2022/04/21 00:09:31;;;;;;;10.55;6.68;;;;;;;6.85;74.18;99003.91;4998845;28;20041;-53
2022/04/21 00:11:56;;;;;;;6.25;4.32;;;;;;;6.94;73.37;99007.09;4994462;28;20393;-51
2022/04/21 00:14:22;;;;;;;7.20;4.50;;;;;;;6.98;72.75;99007.44;4993939;28;20381;-53
2022/04/21 00:16:47;;;;;;;8.35;4.28;;;;;;;6.90;73.46;99003.22;4988796;28;20425;-51
2022/04/21 00:19:12;;;;;;;5.70;4.25;;;;;;;6.65;73.28;99003.31;4991968;28;20041;-52
2022/04/21 00:24:22;;;;;;;7.00;4.10;;;;;;;6.74;76.53;98995.84;4993386;28;20041;-53
2022/04/21 00:26:47;;;;;;;7.75;4.28;;;;;;;6.65;73.55;98996.16;4993488;28;20038;-51
2022/04/21 00:29:13;;;;;;;10.00;4.03;;;;;;;6.47;73.77;98996.97;4991081;28;20025;-53
2022/04/21 00:31:39;;;;;;;7.13;4.38;;;;;;;6.75;73.15;98990.28;4987860;28;20038;-54
2022/04/21 00:34:04;;;;;;;5.70;4.10;;;;;;;6.63;73.50;98990.22;4997407;28;20378;-54
2022/04/21 00:36:30;;;;;;;9.27;4.57;;;;;;;6.44;73.94;98981.44;4992348;28;20049;-54
2022/04/21 00:38:55;;;;;;;12.38;7.32;;;;;;;6.25;75.11;98991.25;4988611;28;20539;-50
2022/04/21 00:41:20;;;;;;;9.45;6.03;;;;;;;6.13;76.03;98986.88;4987842;28;20050;-52
2022/04/21 00:43:46;;;;;;;8.68;5.07;;;;;;;6.12;75.70;98977.25;4991007;28;20040;-50
2022/04/21 00:46:18;;;;;;;7.38;4.50;;;;;;;6.42;74.63;98980.84;4992680;28;20042;-52
2022/04/21 00:48:44;;;;;;;10.70;6.70;;;;;;;6.58;72.75;98987.41;4986234;28;20033;-52
2022/04/21 00:51:09;;;;;;;10.25;6.53;;;;;;;6.21;75.75;98982.06;4988011;28;20043;-54
2022/04/21 00:53:34;;;;;;;10.98;6.35;;;;;;;6.07;75.79;98985.91;4989694;28;20026;-51
2022/04/21 00:56:01;;;;;;;10.05;6.60;;;;;;;6.10;75.36;98982.00;4988508;28;20051;-50
2022/04/21 00:58:27;;;;;;;11.45;6.68;;;;;;;5.98;75.00;98988.00;4974260;28;20037;-51
2022/04/21 01:00:53;;;;;;;11.02;6.55;;;;;;;5.76;75.89;98982.22;4974232;28;20042;-50
2022/04/21 01:03:18;;;;;;;10.30;6.38;;;;;;;5.62;77.33;98978.88;4976329;28;20038;-51
2022/04/21 01:05:44;;;;;;;9.85;5.40;;;;;;;5.76;77.09;98984.06;4990555;28;20595;-54
2022/04/21 01:08:09;;;;;;;9.10;5.32;;;;;;;5.73;76.91;98980.00;4990666;28;20394;-51
2022/04/21 01:10:36;;;;;;;7.82;4.78;;;;;;;5.74;76.39;98972.84;4985569;28;20038;-51
2022/04/21 01:13:04;;;;;;;8.45;5.00;;;;;;;5.81;76.47;98976.25;4993054;28;20480;-50
2022/04/21 01:15:29;;;;;;;7.63;4.93;;;;;;;5.72;77.54;98983.72;4990286;28;20045;-52
2022/04/21 01:17:54;;;;;;;8.60;5.00;;;;;;;5.62;76.69;98981.53;4996952;28;20037;-50
2022/04/21 01:20:23;;;;;;;7.90;5.20;;;;;;;5.57;77.37;98985.88;4991581;28;20065;-50
2022/04/21 01:22:49;;;;;;;8.95;4.70;;;;;;;5.60;77.03;98985.44;4992738;28;20052;-53
2022/04/21 01:25:14;;;;;;;7.35;4.65;;;;;;;5.76;77.49;98984.06;4999549;28;20033;-54
2022/04/21 01:27:40;;;;;;;10.00;4.97;;;;;;;6.06;77.59;98981.59;4993698;28;20135;-53
2022/04/21 01:30:07;;;;;;;8.10;5.03;;;;;;;6.08;76.02;98976.88;4993776;28;20041;-51
2022/04/21 01:32:35;;;;;;;8.93;5.03;;;;;;;5.82;76.02;98983.22;4991216;28;20140;-53
2022/04/21 01:35:07;;;;;;;9.32;4.85;;;;;;;5.72;77.43;98972.25;4994535;28;20114;-51
2022/04/21 01:43:01;;;;;;;12.95;5.07;;;;;;;5.41;78.18;98982.69;4995665;28;20033;-51
2022/04/21 01:45:26;;;;;;;9.73;5.20;;;;;;;5.43;78.36;98963.06;4992811;28;20412;-50
2022/04/21 01:47:52;;;;;;;9.00;5.20;;;;;;;5.69;77.29;98965.53;4991335;28;20025;-52
2022/04/21 01:50:17;;;;;;;10.68;5.07;;;;;;;5.86;76.17;98959.66;4993637;28;20156;-53
2022/04/21 01:52:43;;;;;;;7.00;4.55;;;;;;;5.97;75.43;98958.97;4991661;28;20038;-50
2022/04/21 01:55:08;;;;;;;8.00;4.93;;;;;;;6.16;75.22;98955.28;4986823;28;20158;-51
2022/04/21 01:57:34;;;;;;;13.70;4.72;;;;;;;5.93;74.73;98957.75;4989821;28;20049;-51
2022/04/21 01:59:59;;;;;;;12.27;5.05;;;;;;;5.75;75.85;98962.00;4987131;28;20070;-50
2022/04/21 02:02:25;;;;;;;6.65;4.70;;;;;;;5.86;75.68;98952.47;4995266;28;20037;-50
2022/04/21 02:04:50;;;;;;;11.25;5.10;;;;;;;6.02;75.12;98951.16;4989713;28;20030;-50
2022/04/21 02:07:16;;;;;;;6.85;4.97;;;;;;;5.86;75.80;98951.69;4987000;28;20046;-51
2022/04/21 02:09:42;;;;;;;7.15;4.40;;;;;;;5.73;77.09;98957.94;4992346;28;20030;-51
2022/04/21 02:12:08;;;;;;;7.35;4.70;;;;;;;5.77;77.04;98954.63;4993681;28;20049;-51
2022/04/21 02:14:37;;;;;;;9.57;4.90;;;;;;;5.97;76.62;98949.16;4991486;28;20026;-52
2022/04/21 02:17:05;;;;;;;6.82;4.90;;;;;;;5.77;77.10;98951.97;4990305;28;20046;-50
2022/04/21 02:19:30;;;;;;;6.00;4.00;;;;;;;5.54;76.74;98957.03;4995562;28;20394;-50
2022/04/21 02:21:56;;;;;;;10.10;5.40;;;;;;;5.54;76.47;98949.06;4992569;28;20054;-52
2022/04/21 02:24:21;;;;;;;7.40;4.68;;;;;;;5.39;76.70;98946.72;4978451;28;20029;-51
2022/04/21 02:26:47;;;;;;;7.90;4.60;;;;;;;5.45;81.40;98947.72;4986447;28;20216;-53
2022/04/21 02:29:12;;;;;;;7.95;5.00;;;;;;;5.31;80.66;98952.31;4991766;28;20477;-50
2022/04/21 02:31:38;;;;;;;7.05;5.18;;;;;;;5.06;78.35;98946.94;4989866;28;20057;-53
2022/04/21 02:34:03;;;;;;;7.18;5.00;;;;;;;5.53;78.89;98942.13;4994549;28;20082;-50
2022/04/21 02:36:28;;;;;;;9.60;5.10;;;;;;;5.76;77.65;98929.03;4990222;28;20038;-54
2022/04/21 02:38:54;;;;;;;6.78;4.68;;;;;;;5.37;76.38;98935.50;4996870;28;20037;-53
2022/04/21 02:41:20;;;;;;;7.18;5.13;;;;;;;4.99;77.26;98931.03;5000885;28;20042;-50
2022/04/21 02:43:45;;;;;;;7.32;5.30;;;;;;;4.68;78.38;98937.13;4991771;28;20045;-50
2022/04/21 02:46:12;;;;;;;7.93;5.28;;;;;;;4.44;80.13;98938.66;4993999;28;20092;-51
2022/04/21 02:48:38;;;;;;;7.72;5.40;;;;;;;4.31;81.28;98934.19;4990601;28;20030;-53
2022/04/21 02:51:03;;;;;;;7.32;5.47;;;;;;;4.44;82.71;98933.34;4992047;28;20475;-52
2022/04/21 02:59:00;;;;;;;6.47;4.45;;;;;;;4.56;80.18;98920.22;4995548;28;20197;-54
2022/04/21 03:01:26;;;;;;;9.05;5.20;;;;;;;4.52;80.79;98931.28;4997861;28;20096;-51
2022/04/21 03:03:51;;;;;;;12.00;5.30;;;;;;;4.63;81.84;98918.38;4998002;28;20030;-52
2022/04/21 03:06:17;;;;;;;8.52;4.88;;;;;;;4.58;80.26;98918.19;4994773;28;20552;-52
2022/04/21 03:08:42;;;;;;;10.05;5.60;;;;;;;4.44;81.06;98925.38;4995767;28;20046;-50
2022/04/21 03:11:08;;;;;;;6.53;4.65;;;;;;;4.54;80.90;98923.94;4989941;28;20038;-50
2022/04/21 03:13:33;;;;;;;9.00;5.15;;;;;;;4.54;80.49;98921.28;4997705;28;20076;-52
2022/04/21 03:15:59;;;;;;;8.85;4.88;;;;;;;4.63;80.51;98927.13;4998882;28;20041;-51
2022/04/21 03:18:24;;;;;;;11.02;5.25;;;;;;;4.56;80.60;98928.19;4999943;28;20034;-51
2022/04/21 03:26:18;;;;;;;9.30;5.50;;;;;;;4.32;82.13;98920.75;4989526;28;20045;-50
2022/04/21 03:28:43;;;;;;;8.32;5.80;;;;;;;4.57;83.84;98921.84;4994228;28;20034;-50
2022/04/21 03:31:09;;;;;;;13.68;5.68;;;;;;;4.49;81.19;98921.09;4992480;28;20046;-50
2022/04/21 03:33:34;;;;;;;9.75;5.88;;;;;;;4.35;81.92;98918.69;4989894;28;20022;-51
2022/04/21 03:36:00;;;;;;;8.20;5.95;;;;;;;4.48;82.71;98919.44;4991479;28;20050;-50
2022/04/21 03:38:25;;;;;;;9.25;5.70;;;;;;;4.47;81.31;98917.03;4994931;28;20395;-50
2022/04/21 03:40:51;;;;;;;7.75;5.90;;;;;;;4.43;81.48;98919.25;4998188;28;20050;-51
2022/04/21 03:43:16;;;;;;;9.27;5.82;;;;;;;4.37;81.69;98924.59;5000133;28;20030;-50
2022/04/21 03:45:41;;;;;;;11.15;5.90;;;;;;;4.33;82.04;98927.66;4998868;28;20100;-50
2022/04/21 03:48:07;;;;;;;8.02;5.70;;;;;;;4.24;82.09;98925.44;5002457;28;20018;-51
2022/04/21 03:50:34;;;;;;;8.27;5.20;;;;;;;4.17;83.25;98914.88;4989562;28;20042;-52
2022/04/21 03:53:00;;;;;;;8.55;6.30;;;;;;;4.17;83.17;98924.66;4993279;28;20041;-51
2022/04/21 03:55:25;;;;;;;9.70;5.93;;;;;;;4.28;84.17;98924.00;4989260;28;20065;-50
2022/04/21 03:57:51;;;;;;;9.05;6.35;;;;;;;4.35;83.98;98930.13;4995521;28;20041;-51
2022/04/21 04:00:17;;;;;;;10.20;5.95;;;;;;;4.35;83.57;98922.16;4997834;28;20025;-51
2022/04/21 04:02:42;;;;;;;11.65;5.93;;;;;;;4.21;83.08;98923.22;4998421;28;20064;-51
2022/04/21 04:05:08;;;;;;;10.10;6.15;;;;;;;4.22;82.86;98927.47;4992565;28;20474;-51
2022/04/21 04:13:01;;;;;;;10.50;6.38;;;;;;;4.27;83.36;98928.50;4988895;28;20077;-53
2022/04/21 04:15:26;;;;;;;9.45;6.55;;;;;;;4.30;83.45;98921.97;4988554;28;20412;-51
2022/04/21 04:17:52;;;;;;;9.43;6.38;;;;;;;4.41;83.32;98923.97;4989199;28;20034;-51
2022/04/21 04:20:17;;;;;;;10.13;7.10;;;;;;;4.69;81.91;98922.81;4991008;28;20042;-50
2022/04/21 04:22:43;;;;;;;8.55;6.18;;;;;;;4.60;82.85;98927.56;4998693;28;20073;-51
2022/04/21 04:25:09;;;;;;;9.55;6.50;;;;;;;4.47;82.15;98920.47;4993321;28;20034;-50
2022/04/21 04:27:36;;;;;;;7.82;6.15;;;;;;;4.46;83.04;98926.78;4993693;28;20113;-51
2022/04/21 04:30:02;;;;;;;10.88;6.45;;;;;;;4.50;83.39;98921.91;5002275;28;20096;-49
2022/04/21 04:32:28;;;;;;;9.85;7.13;;;;;;;4.40;82.66;98924.19;4988601;28;20125;-51
2022/04/21 04:34:53;;;;;;;9.93;6.95;;;;;;;4.65;82.90;98924.28;4980925;28;20117;-51
2022/04/21 04:37:19;;;;;;;12.02;6.97;;;;;;;4.97;84.13;98927.81;4994813;28;20045;-51
2022/04/21 04:39:44;;;;;;;9.00;5.82;;;;;;;4.65;80.64;98930.41;4998700;28;20029;-52
2022/04/21 04:42:22;;;;;;;10.05;6.18;;;;;;;4.57;80.65;98932.47;4986816;28;20049;-50
2022/04/21 04:44:49;;;;;;;14.80;6.35;;;;;;;4.60;79.68;98935.53;4991001;28;20113;-51
2022/04/21 04:47:15;;;;;;;8.93;6.53;;;;;;;4.90;78.72;98927.84;4994244;28;20067;-50
2022/04/21 04:49:40;;;;;;;11.85;5.80;;;;;;;4.83;77.41;98935.00;4994110;28;20493;-49
2022/04/21 04:52:06;;;;;;;9.88;5.95;;;;;;;5.43;74.97;98941.81;4990542;28;20128;-52
2022/04/21 04:54:31;;;;;;;7.90;5.60;;;;;;;6.01;73.05;98938.88;4988451;28;20385;-52
2022/04/21 04:56:57;;;;;;;8.32;5.45;;;;;;;6.65;69.78;98948.22;4995887;28;20393;-52
2022/04/21 04:59:22;;;;;;;10.60;5.57;;;;;;;6.71;69.17;98933.16;4997605;28;20033;-50
2022/04/21 05:01:48;;;;;;;8.38;5.80;;;;;;;6.37;71.32;98931.97;4991788;28;20074;-49
2022/04/21 05:04:19;;;;;;;8.73;5.35;;;;;;;6.85;68.93;98939.16;4988866;28;20342;-50
2022/04/21 05:06:51;;;;;;;8.65;5.40;;;;;;;7.56;67.07;98935.66;4987516;28;20129;-51
2022/04/21 05:09:18;;;;;;;9.77;5.50;;;;;;;7.87;65.80;98941.72;4993535;28;20492;-50
2022/04/21 05:11:48;;;;;;;10.52;6.80;;;;;;;8.56;62.75;98941.91;4992923;28;20046;-50
2022/04/21 05:14:14;;;;;;;14.80;7.47;;;;;;;8.84;61.34;98940.31;4986551;28;20019;-52
2022/04/21 05:16:39;;;;;;;11.13;7.22;;;;;;;9.84;58.14;98944.19;4990786;28;20046;-50
2022/04/21 05:19:13;;;;;;;9.98;6.60;;;;;;;10.27;56.97;98929.25;4991779;28;20455;-52
2022/04/21 05:21:39;;;;;;;10.02;7.05;;;;;;;10.46;55.98;98935.16;4994520;28;20042;-53
2022/04/21 05:24:05;;;;;;;11.40;6.63;;;;;;;11.17;54.23;98934.34;4998481;28;20034;-50
2022/04/21 05:26:32;;;;;;;8.60;5.90;;;;;;;11.48;52.92;98942.66;4990087;28;20042;-52
2022/04/21 05:28:59;;;;;;;8.20;6.47;;;;;;;11.52;52.81;98935.75;4994482;28;20489;-50
2022/04/21 05:31:26;;;;;;;9.85;6.00;;;;;;;11.79;52.23;98936.50;4992398;28;20133;-50
2022/04/21 05:33:52;;;;;;;9.52;6.70;;;;;;;11.87;51.35;98938.72;4988587;28;20027;-53
2022/04/21 05:36:18;;;;;;;12.45;6.28;;;;;;;12.72;50.11;98935.94;4996408;28;20045;-52
2022/04/21 05:38:43;;;;;;;13.57;6.70;;;;;;;13.84;47.22;98939.91;4991324;28;20034;-53
2022/04/21 05:41:09;;;;;;;11.88;6.90;;;;;;;13.49;47.35;98936.16;4987159;28;20042;-50
2022/04/21 05:43:45;;;;;;;8.43;6.20;;;;;;;13.51;47.15;98934.00;4992050;28;20496;-51
2022/04/21 05:46:12;;;;;;;10.70;6.80;;;;;;;13.93;46.41;98935.59;4994733;28;20050;-52
2022/04/21 05:48:38;;;;;;;14.60;6.43;;;;;;;14.08;45.78;98933.94;4994832;28;20066;-50
2022/04/21 05:51:04;;;;;;;10.13;6.75;;;;;;;13.89;47.14;98934.53;4992610;28;20080;-50
2022/04/21 05:53:32;;;;;;;19.13;6.88;;;;;;;14.49;45.64;98931.97;4992564;28;20053;-53
2022/04/21 05:55:58;;;;;;;12.82;7.43;;;;;;;14.66;45.55;98934.38;4990578;28;20053;-53
2022/04/21 05:58:24;;;;;;;12.85;6.53;;;;;;;15.60;44.04;98928.94;4992353;28;20559;-53
2022/04/21 06:00:50;;;;;;;9.73;6.22;;;;;;;16.17;42.65;98929.22;4991647;28;20335;-52
2022/04/21 06:03:16;;;;;;;10.63;5.97;;;;;;;16.27;42.50;98931.03;5004446;28;20061;-52
2022/04/21 06:05:41;;;;;;;9.15;5.75;;;;;;;17.15;40.40;98923.47;4989416;28;20081;-51
2022/04/21 06:08:10;;;;;;;14.40;6.38;;;;;;;16.98;40.73;98922.06;5003822;28;20034;-52
2022/04/21 06:10:35;;;;;;;15.00;6.10;;;;;;;16.77;41.86;98926.09;4989517;28;20887;-52
2022/04/21 06:13:02;;;;;;;13.77;5.75;;;;;;;16.94;41.44;98923.75;4994617;28;20037;-51
2022/04/21 06:15:30;;;;;;;17.42;6.18;;;;;;;17.07;40.99;98921.41;4998481;28;20396;-54
2022/04/21 06:17:56;;;;;;;15.52;5.75;;;;;;;17.76;39.96;98927.13;4989837;28;20026;-52
2022/04/21 06:20:21;;;;;;;8.95;5.85;;;;;;;15.97;44.06;98922.13;4991088;28;20613;-50
2022/04/21 06:22:47;;;;;;;15.57;5.72;;;;;;;16.66;42.91;98932.75;4990089;28;20053;-53
2022/04/21 06:25:12;;;;;;;18.83;6.60;;;;;;;17.38;41.84;98928.00;4995376;28;20036;-53
2022/04/21 06:27:37;;;;;;;19.45;6.68;;;;;;;18.26;40.29;98922.72;5005491;28;20034;-51
2022/04/21 06:30:03;;;;;;;11.27;5.93;;;;;;;18.06;40.36;98929.31;4990293;28;20100;-52
2022/04/21 06:32:29;;;;;;;15.65;6.30;;;;;;;18.12;40.49;98930.03;5000566;28;20488;-51
2022/04/21 06:34:54;;;;;;;20.85;5.97;;;;;;;17.48;41.41;98931.66;4998413;28;21502;-54
2022/04/21 06:37:20;;;;;;;24.20;6.47;;;;;;;18.80;38.91;98924.94;4996135;28;20108;-52
2022/04/21 06:39:45;;;;;;;25.30;6.38;;;;;;;19.04;38.77;98927.41;4990238;28;20477;-53
2022/04/21 06:42:10;;;;;;;22.55;6.05;;;;;;;18.95;37.96;98921.91;4996338;28;20061;-50
2022/04/21 06:50:04;;;;;;;19.65;5.68;;;;;;;18.95;37.44;98925.41;4999580;28;20443;-51
2022/04/21 06:52:32;;;;;;;18.83;5.85;;;;;;;18.62;37.85;98922.03;4993397;28;20033;-50
2022/04/21 06:54:58;;;;;;;24.50;6.72;;;;;;;18.92;37.52;98927.94;4989912;28;20034;-51
2022/04/21 06:57:24;;;;;;;29.00;5.43;;;;;;;19.40;36.79;98921.97;4988562;28;20045;-53
2022/04/21 06:59:50;;;;;;;31.27;6.05;;;;;;;19.71;36.48;98927.47;5000449;28;20114;-50
2022/04/21 07:02:16;;;;;;;28.52;5.55;;;;;;;19.04;37.54;98913.81;4988794;28;20196;-51
2022/04/21 07:04:41;;;;;;;16.92;4.93;;;;;;;19.52;36.72;98922.22;5002167;28;20518;-53
2022/04/21 07:07:07;;;;;;;19.38;5.15;;;;;;;18.24;38.39;98922.19;4997501;28;20048;-53
2022/04/21 07:09:32;;;;;;;19.20;5.25;;;;;;;19.33;37.03;98916.16;4998768;28;20048;-53
2022/04/21 07:11:58;;;;;;;22.52;5.38;;;;;;;19.13;36.44;98920.16;4993379;28;20031;-53
2022/04/21 07:14:24;;;;;;;23.48;5.05;;;;;;;19.59;36.65;98916.34;4993624;28;20025;-50
2022/04/21 07:16:49;;;;;;;15.90;5.40;;;;;;;20.76;34.70;98927.97;4997579;28;20041;-52
2022/04/21 07:19:14;;;;;;;14.48;4.95;;;;;;;19.33;36.51;98914.25;4992790;28;20030;-51
2022/04/21 07:21:40;;;;;;;22.30;5.05;;;;;;;19.18;36.57;98922.75;4990329;28;20397;-53
2022/04/21 07:24:05;;;;;;;18.00;5.55;;;;;;;19.04;36.51;98916.53;4989314;28;20041;-52
2022/04/21 07:26:31;;;;;;;16.50;5.00;;;;;;;19.88;35.58;98913.19;4994295;28;20700;-52
2022/04/21 07:28:57;;;;;;;18.02;4.57;;;;;;;19.83;35.59;98911.41;4997714;28;20038;-53
2022/04/21 07:31:22;;;;;;;24.15;5.38;;;;;;;19.29;36.80;98907.00;4999726;28;20042;-53
2022/04/21 07:33:48;;;;;;;18.27;4.97;;;;;;;20.06;35.40;98916.00;4996191;28;20491;-52
2022/04/21 07:36:13;;;;;;;19.60;5.10;;;;;;;19.28;36.41;98906.22;4992787;28;20029;-51
2022/04/21 07:38:38;;;;;;;16.95;5.05;;;;;;;19.81;36.06;98912.84;4993003;28;20038;-52
2022/04/21 07:41:04;;;;;;;34.22;5.97;;;;;;;19.04;36.66;98906.47;4989234;28;20490;-49
2022/04/21 07:43:32;;;;;;;19.08;5.07;;;;;;;19.50;36.99;98910.06;4988693;28;20034;-53
2022/04/21 07:45:57;;;;;;;17.20;4.85;;;;;;;19.03;37.26;98910.31;4992178;28;20046;-51
2022/04/21 07:48:23;;;;;;;25.77;5.32;;;;;;;19.68;36.10;98903.63;4996371;28;20030;-54
2022/04/21 07:50:49;;;;;;;14.45;4.93;;;;;;;17.52;39.85;98900.94;4996646;28;20503;-51
2022/04/21 07:53:15;;;;;;;26.40;5.63;;;;;;;18.10;38.54;98892.38;4995384;28;20088;-51
2022/04/21 07:55:42;;;;;;;15.05;5.43;;;;;;;15.61;42.67;98898.13;4990637;28;20663;-50
2022/04/21 07:58:08;;;;;;;17.80;5.60;;;;;;;15.36;44.06;98892.94;4991411;28;20030;-51
2022/04/21 08:00:36;;;;;;;24.80;5.60;;;;;;;16.30;42.15;98893.41;4988450;28;20069;-50
2022/04/21 08:03:05;;;;;;;25.02;6.60;;;;;;;16.91;40.91;98899.16;4987125;28;20066;-51
2022/04/21 08:05:30;;;;;;;24.45;5.68;;;;;;;18.48;38.74;98889.47;4994578;28;20503;-53
2022/04/21 08:07:56;;;;;;;15.18;4.95;;;;;;;17.69;39.04;98900.41;4995704;28;20018;-52
2022/04/21 08:10:22;;;;;;;11.30;5.03;;;;;;;16.01;42.32;98898.06;4991259;28;20071;-51
2022/04/21 08:12:51;;;;;;;11.45;5.00;;;;;;;16.07;42.63;98902.31;4995637;28;20388;-52
2022/04/21 08:15:26;;;;;;;13.80;5.30;;;;;;;15.60;43.88;98888.41;4992054;28;20264;-52
2022/04/21 08:17:54;;;;;;;8.55;4.72;;;;;;;15.99;43.35;98903.75;4989835;28;20022;-51
2022/04/21 08:20:19;;;;;;;7.90;4.70;;;;;;;16.48;42.62;98899.97;4997240;28;20025;-52
2022/04/21 08:22:45;;;;;;;11.50;4.82;;;;;;;15.00;45.53;98895.84;4988736;28;20038;-50
2022/04/21 08:33:39;;;;;;;9.13;4.57;;;;;;;15.96;42.08;98915.13;4986837;28;20611;-54
2022/04/21 08:36:05;;;;;;;12.90;5.03;;;;;;;14.77;44.52;98903.53;4988469;28;20497;-50
2022/04/21 08:38:31;;;;;;;14.05;5.32;;;;;;;13.75;46.96;98901.97;4990459;28;20445;-52
2022/04/21 08:40:58;;;;;;;10.63;5.68;;;;;;;14.41;46.15;98906.38;4991589;28;20153;-52
2022/04/21 08:43:25;;;;;;;11.00;5.20;;;;;;;15.19;44.53;98906.81;4993516;28;20049;-51
2022/04/21 08:45:51;;;;;;;13.55;5.10;;;;;;;15.17;45.28;98901.69;4999003;28;20046;-53
2022/04/21 08:48:18;;;;;;;8.57;4.70;;;;;;;15.01;43.80;98902.88;4988514;28;20085;-52
2022/04/21 08:50:43;;;;;;;8.02;4.50;;;;;;;15.19;43.91;98902.22;4990638;28;20669;-53
2022/04/21 08:53:09;;;;;;;10.20;5.03;;;;;;;14.14;45.46;98898.63;4999622;28;20526;-53
2022/04/21 08:55:38;;;;;;;7.45;4.60;;;;;;;14.84;44.72;98890.56;4992517;28;20068;-53
2022/04/21 08:58:04;;;;;;;10.15;4.40;;;;;;;14.64;45.78;98896.88;4980721;28;20030;-52
2022/04/21 09:00:32;;;;;;;13.38;4.55;;;;;;;14.23;45.32;98894.31;4995132;28;20042;-53
2022/04/21 09:02:58;;;;;;;6.95;4.43;;;;;;;13.84;46.18;98893.31;4990291;28;20476;-51
2022/04/21 09:05:29;;;;;;;14.43;4.65;;;;;;;14.56;45.85;98889.38;4994490;28;20041;-53
2022/04/21 09:07:54;;;;;;;7.80;4.70;;;;;;;14.96;44.54;98892.13;4992850;28;20022;-51
2022/04/21 09:10:20;;;;;;;10.35;4.78;;;;;;;14.28;44.99;98888.09;4996125;28;20041;-50
2022/04/21 09:12:56;;;;;;;9.43;4.45;;;;;;;15.11;45.12;98886.63;5000150;28;20060;-51
2022/04/21 09:15:23;;;;;;;9.35;5.00;;;;;;;15.01;44.09;98889.41;4993049;28;20511;-51
2022/04/21 09:17:51;;;;;;;9.88;4.80;;;;;;;14.87;44.42;98879.19;4994773;28;20466;-50
2022/04/21 09:20:21;;;;;;;11.25;5.75;;;;;;;17.15;41.39;98874.75;4989111;28;20038;-52
2022/04/21 09:22:54;;;;;;;9.05;4.70;;;;;;;17.58;39.58;98880.00;4994243;28;20030;-53
2022/04/21 09:25:29;;;;;;;6.75;4.13;;;;;;;16.27;41.10;98876.94;4995143;28;20831;-51
2022/04/21 09:27:55;;;;;;;8.07;4.40;;;;;;;16.47;40.79;98876.69;4987757;28;20085;-53
2022/04/21 09:30:20;;;;;;;7.90;4.85;;;;;;;15.08;43.98;98868.31;4994253;28;20404;-52
2022/04/21 09:32:56;;;;;;;13.45;4.70;;;;;;;16.27;41.47;98866.94;4998787;28;20416;-54
2022/04/21 09:35:22;;;;;;;11.80;4.30;;;;;;;17.33;39.81;98854.94;4991980;28;20050;-54
2022/04/21 09:37:49;;;;;;;9.95;4.90;;;;;;;17.12;39.27;98853.63;4997202;28;20436;-52
2022/04/21 09:40:16;;;;;;;10.30;4.60;;;;;;;17.81;38.16;98851.16;4994420;28;20034;-52
2022/04/21 09:42:42;;;;;;;8.32;4.35;;;;;;;17.26;39.15;98840.97;4998594;28;20100;-53
2022/04/21 09:47:53;;;;;;;8.93;4.45;;;;;;;15.86;41.44;98845.78;4996284;28;20696;-51
2022/04/21 09:50:19;;;;;;;10.13;5.18;;;;;;;16.02;41.10;98841.00;4994650;28;20050;-51
2022/04/21 09:52:52;;;;;;;9.65;4.50;;;;;;;15.41;41.82;98838.88;4983604;28;20030;-50
2022/04/21 09:55:28;;;;;;;10.32;4.40;;;;;;;16.68;40.36;98827.75;4992475;28;20030;-52
2022/04/21 09:58:07;;;;;;;6.50;4.18;;;;;;;15.00;43.38;98834.63;4989806;28;20080;-51
2022/04/21 10:00:36;;;;;;;15.23;4.85;;;;;;;14.88;43.54;98832.25;4993941;28;20058;-51
2022/04/21 10:03:02;;;;;;;8.43;4.40;;;;;;;15.51;43.59;98828.00;4993568;28;20034;-54
2022/04/21 10:05:31;;;;;;;11.77;4.65;;;;;;;15.54;43.42;98832.81;4996097;28;20276;-51
2022/04/21 10:07:59;;;;;;;7.18;3.05;;;;;;;15.95;38.15;98827.03;4996393;28;20503;-51
2022/04/21 10:10:26;;;;;;;8.52;3.83;;;;;;;16.94;37.05;98818.16;5000945;28;20046;-51
2022/04/21 10:12:56;;;;;;;10.00;3.95;;;;;;;17.23;37.32;98825.31;4990101;28;20044;-52
2022/04/21 10:15:21;;;;;;;8.02;3.65;;;;;;;16.34;38.47;98823.31;4995085;28;20157;-53
2022/04/21 10:17:47;;;;;;;8.23;3.50;;;;;;;15.35;40.49;98821.09;4997602;28;20117;-52
2022/04/21 10:20:12;;;;;;;8.57;3.20;;;;;;;16.12;38.74;98810.34;5002078;28;20042;-52
2022/04/21 10:22:38;;;;;;;6.18;3.13;;;;;;;16.78;37.01;98811.41;4989782;28;20361;-52
2022/04/21 10:25:05;;;;;;;4.80;2.90;;;;;;;17.78;36.00;98801.03;4977548;28;20029;-54
2022/04/21 10:27:46;;;;;;;5.75;3.00;;;;;;;15.83;38.36;98805.00;4986892;28;20432;-53
2022/04/21 10:30:22;;;;;;;4.95;3.28;;;;;;;15.50;39.47;98800.19;4999004;28;20061;-53
2022/04/21 10:32:51;;;;;;;5.95;3.17;;;;;;;15.48;40.28;98796.16;4996475;28;20026;-53
2022/04/21 10:35:17;;;;;;;5.47;3.20;;;;;;;16.11;38.52;98787.91;4994560;28;20151;-51
2022/04/21 10:37:43;;;;;;;6.57;3.05;;;;;;;15.84;38.68;98787.69;4990675;28;20030;-52
2022/04/21 10:40:15;;;;;;;7.82;2.90;;;;;;;16.04;39.22;98798.25;4997274;28;20481;-54
2022/04/21 10:42:52;;;;;;;8.88;3.00;;;;;;;16.60;38.50;98785.94;4997146;28;20700;-52
2022/04/21 10:45:34;;;;;;;4.72;2.85;;;;;;;17.84;36.88;98778.16;5001152;28;20044;-50
2022/04/21 10:48:06;;;;;;;8.88;3.33;;;;;;;18.63;35.28;98774.34;4991770;28;20057;-50
2022/04/21 10:50:32;;;;;;;6.20;3.42;;;;;;;18.85;36.07;98775.53;4995232;28;20101;-54
2022/04/21 10:58:34;;;;;;;7.50;3.45;;;;;;;17.17;37.88;98769.63;4989825;28;20320;-51
2022/04/21 11:01:13;;;;;;;6.57;3.35;;;;;;;16.74;39.91;98761.63;4993758;28;20050;-53
2022/04/21 11:03:39;;;;;;;10.82;3.47;;;;;;;18.53;36.56;98761.00;5000736;28;20560;-54
2022/04/21 11:06:09;;;;;;;13.65;3.65;;;;;;;18.28;36.88;98762.38;4986954;28;20089;-51
2022/04/21 11:08:34;;;;;;;8.45;3.10;;;;;;;19.17;35.50;98758.97;4989290;28;20528;-54
2022/04/21 11:11:00;;;;;;;7.13;3.00;;;;;;;18.15;36.79;98764.00;4985393;28;20050;-52
2022/04/21 11:13:51;;;;;;;10.52;3.67;;;;;;;15.46;40.36;98757.81;4990097;28;20068;-54
2022/04/21 11:16:55;;;;;;;7.55;3.30;;;;;;;16.06;39.63;98774.47;4995205;28;20094;-54
2022/04/21 11:19:29;;;;;;;9.90;2.90;;;;;;;15.08;41.45;98768.44;4990991;28;20505;-51
2022/04/21 11:22:05;;;;;;;5.15;2.95;;;;;;;15.07;41.10;98773.00;4993775;28;20142;-50
2022/04/21 11:24:56;;;;;;;5.97;2.90;;;;;;;15.43;40.83;98755.69;4991654;28;20034;-52
2022/04/21 11:27:21;;;;;;;;;;;;;;;15.87;39.90;98755.50;4992247;28;20452;-53
2022/04/21 11:29:47;;;;;;;5.97;2.67;;;;;;;15.78;40.45;98746.44;4995171;28;19928;-53
2022/04/21 11:32:16;;;;;;;15.82;2.80;;;;;;;15.42;41.32;98743.28;4999908;28;20163;-51
2022/04/21 11:34:42;;;;;;;8.07;2.95;;;;;;;15.06;41.54;98744.41;4996081;28;20029;-53
2022/04/21 11:37:07;;;;;;;6.72;2.78;;;;;;;15.14;41.35;98740.31;4993530;28;20050;-53
2022/04/21 11:39:37;;;;;;;4.50;2.70;;;;;;;14.79;42.08;98733.31;4994097;28;20034;-50
2022/04/21 11:42:03;;;;;;;6.35;2.50;;;;;;;14.84;42.78;98749.47;4993189;28;20049;-51
2022/04/21 11:44:28;;;;;;;9.80;2.90;;;;;;;15.25;41.60;98736.44;4995609;28;20034;-51
2022/04/21 11:46:54;;;;;;;5.03;2.63;;;;;;;15.77;40.81;98744.00;4996269;28;20042;-50
2022/04/21 11:49:19;;;;;;;7.25;2.78;;;;;;;15.82;40.39;98746.66;4991517;28;20026;-52
2022/04/21 11:51:51;;;;;;;5.57;2.95;;;;;;;15.58;40.85;98743.94;4992035;28;20156;-53
2022/04/21 11:54:17;;;;;;;7.95;2.83;;;;;;;15.95;40.71;98735.16;4993533;28;20030;-54
2022/04/21 11:56:42;;;;;;;7.97;2.92;;;;;;;16.09;41.12;98736.03;4980518;28;20045;-52
2022/04/21 11:59:09;;;;;;;10.10;3.30;;;;;;;15.31;41.92;98729.88;4978755;28;20363;-50
2022/04/21 12:07:08;;;;;;;6.55;2.40;;;;;;;15.53;42.55;98713.19;4991453;28;20500;-55
2022/04/21 12:09:34;;;;;;;5.07;2.75;;;;;;;15.45;42.67;98715.69;4990124;28;20477;-52
2022/04/21 12:12:01;;;;;;;5.82;2.50;;;;;;;15.13;43.34;98719.81;4998882;28;20119;-50
2022/04/21 12:14:27;;;;;;;7.88;2.55;;;;;;;15.08;43.27;98711.75;4994938;28;20023;-53
2022/04/21 12:16:53;;;;;;;8.10;2.58;;;;;;;14.99;43.66;98700.75;4984578;28;20031;-50
2022/04/21 12:19:19;;;;;;;5.22;2.00;;;;;;;15.31;43.27;98710.97;4993628;28;20059;-52
2022/04/21 12:22:06;;;;;;;4.63;2.55;;;;;;;15.01;43.15;98709.38;4990680;28;20045;-54
2022/04/21 12:24:39;;;;;;;4.47;2.67;;;;;;;14.89;43.89;98703.56;4991818;28;20054;-50
2022/04/21 12:27:10;;;;;;;4.43;2.42;;;;;;;15.01;43.50;98701.28;4996573;28;20046;-52